Flight Track Log - Related Links

Times and Time Zones

All times are in EDT time to prevent confusion due to time zone crossing. See the AFR1743 flight status page for this flight to view local times or setup timezone preferences in your user account.

Time Position Orientation Groundspeed Altitude Reporting Facility
EDT Latitude Longitude Course Direction KTS MPH feet Rate Location/Type
Thu 07:09:00 AM 46.3010 6.0338 320° Northwest  Level Estimated
Thu 07:10:00 AM 46.3638 5.9584 320° Northwest  Level Estimated
Thu 07:11:00 AM 46.4266 5.8828 320° Northwest  Level Estimated
Thu 07:12:00 AM 46.4894 5.8071 320° Northwest  Level Estimated
Thu 07:13:00 AM 46.5521 5.7312 320° Northwest  Level Estimated
Thu 07:14:00 AM 46.6148 5.6552 320° Northwest  Level Estimated
Thu 07:15:00 AM 46.6774 5.5789 320° Northwest  Level Estimated
Thu 07:16:00 AM 46.7399 5.5025 320° Northwest  Level Estimated
Thu 07:17:00 AM 46.8024 5.4259 320° Northwest  Level Estimated
Thu 07:18:00 AM 46.8649 5.3491 320° Northwest  Level Estimated
Thu 07:19:00 AM 46.9273 5.2722 320° Northwest  Level Estimated
Thu 07:20:00 AM 46.9897 5.1950 320° Northwest  Level Estimated
Thu 07:21:00 AM 47.0520 5.1177 320° Northwest  Level Estimated
Thu 07:22:00 AM 47.1142 5.0402 320° Northwest  Level Estimated
Thu 07:23:00 AM 47.1764 4.9626 320° Northwest  Level Estimated
Thu 07:24:00 AM 47.2385 4.8847 320° Northwest  Level Estimated
Thu 07:25:00 AM 47.3006 4.8067 320° Northwest  Level Estimated
Thu 07:26:00 AM 47.3543 4.7390 320° Northwest  Level Estimated
Thu 07:27:00 AM 47.4080 4.6712 319° Northwest  Level Estimated
Thu 07:28:00 AM 47.4616 4.6032 319° Northwest  Level Estimated
Thu 07:29:00 AM 47.5152 4.5351 319° Northwest  Level Estimated
Thu 07:30:00 AM 47.5687 4.4669 319° Northwest  Level Estimated
Thu 07:31:00 AM 47.6222 4.3985 319° Northwest  Level Estimated
Thu 07:32:00 AM 47.6756 4.3300 319° Northwest  Level Estimated
Thu 07:33:00 AM 47.7290 4.2613 319° Northwest  Level Estimated
Thu 07:34:00 AM 47.7824 4.1925 319° Northwest  Level Estimated
Thu 07:35:00 AM 47.8357 4.1236 319° Northwest  Level Estimated
Thu 07:36:00 AM 47.8890 4.0545 319° Northwest  Level Estimated
Thu 07:37:00 AM 47.9422 3.9853 319° Northwest  Level Estimated
Thu 07:38:00 AM 47.9954 3.9159 319° Northwest  Level Estimated
Thu 07:39:00 AM 48.0486 3.8464 319° Northwest  Level Estimated
Thu 07:40:00 AM 48.1017 3.7767 319° Northwest  Level Estimated
Thu 07:41:00 AM 48.1477 3.7162 319° Northwest  Level Estimated
Thu 07:42:00 AM 48.1937 3.6557 319° Northwest  Level Estimated
Thu 07:43:00 AM 48.2396 3.5950 319° Northwest  Level Estimated
Thu 07:44:00 AM 48.2855 3.5341 319° Northwest  Level Estimated
Thu 07:45:00 AM 48.3314 3.4732 319° Northwest  Level Estimated
Thu 07:46:00 AM 48.3773 3.4122 319° Northwest  Level Estimated
Thu 07:47:00 AM 48.4231 3.3511 318° Northwest  Level Estimated
Thu 07:48:00 AM 48.4688 3.2898 318° Northwest  Level Estimated
Thu 07:49:00 AM 48.5146 3.2285 318° Northwest  Level Estimated
Thu 07:50:00 AM 48.5603 3.1670 318° Northwest  Level Estimated
Thu 07:51:00 AM 48.6060 3.1054 318° Northwest  Level Estimated
Thu 07:52:00 AM 48.6516 3.0437 318° Northwest  Level Estimated
Thu 07:53:00 AM 48.6972 2.9819 318° Northwest  Level Estimated
Thu 07:54:00 AM 48.7428 2.9200 318° Northwest  Level Estimated
Thu 07:55:00 AM 48.7884 2.8580 318° Northwest  Level Estimated
Thu 07:56:00 AM 48.8354 2.7937 318° Northwest  Level Estimated
Thu 07:57:00 AM 48.8825 2.7293 318° Northwest  Level Estimated
Thu 07:58:00 AM 48.9295 2.6647 318° Northwest  Level Estimated
Thu 07:59:00 AM 48.9765 2.6001 318° Northwest  Level Estimated
Thu 08:00:00 AM 49.0128 2.5500 318° Northwest  Level Estimated
Thu 08:01:00 AM 49.0128 2.5500 180° South  Level Estimated
Thu 08:02:00 AM 49.0128 2.5500 180° South  Level Estimated

Login

Don't have an account? Register now (free) for customized features, flight alerts, and more!